CCA721 ZBAA-UMMS
Flight info
| Callsign | CCA721 |
|---|---|
| Flight time | N/A |
| Altitude | 36100 |
| Route | IDKEX2G IDKEX B339 ASILA A575 INTIK Y618 VIZOT/K0865S1160 Y618 AMUTA/K0863F380 R229 KESUM R372 POGUT G713 SURUT/K0859F400 G713 LITUN T580 POBEM N869 DURTI L29 TEGLU P26 RUHAL RUHAL2H |
| Aircraft | A333/H-SDE3GHIJ2J3J5M1RVWXY/LB2D1 |
Departure
| Time | 2026-04-30 21:01 |
|---|---|
| Airport | Beijing Capital International Airport (ZBAA) |
Arrival
| Time | N/A |
|---|---|
| Airport | Minsk National Airport (UMMS) |
| Time | Latitude | Longitude | Altitude | Speed | Heading |
|---|---|---|---|---|---|
| 2026-04-30 20:43 | 40.07872 | 116.60205 | 128 ft | 0 kts | 203° |
| 2026-04-30 20:53 | 40.07882 | 116.60211 | 129 ft | 2 kts | 201° |
| 2026-04-30 20:53 | 40.07896 | 116.60217 | 129 ft | 2 kts | 199° |
| 2026-04-30 20:54 | 40.07925 | 116.60229 | 129 ft | 2 kts | 195° |
| 2026-04-30 20:54 | 40.07939 | 116.60238 | 129 ft | 2 kts | 240° |
| 2026-04-30 20:54 | 40.07943 | 116.60256 | 129 ft | 2 kts | 284° |
| 2026-04-30 20:55 | 40.07933 | 116.60284 | 129 ft | 0 kts | 295° |
| 2026-04-30 20:55 | 40.07932 | 116.60284 | 128 ft | 0 kts | 295° |
| 2026-04-30 20:58 | 40.07942 | 116.60257 | 128 ft | 7 kts | 295° |
| 2026-04-30 20:58 | 40.07972 | 116.60166 | 129 ft | 14 kts | 293° |
| 2026-04-30 20:58 | 40.07995 | 116.60011 | 128 ft | 16 kts | 267° |
| 2026-04-30 20:58 | 40.08030 | 116.59863 | 129 ft | 21 kts | 340° |
| 2026-04-30 20:59 | 40.08423 | 116.59796 | 128 ft | 34 kts | 354° |
| 2026-04-30 20:59 | 40.08674 | 116.59759 | 129 ft | 28 kts | 351° |
| 2026-04-30 21:00 | 40.08931 | 116.59720 | 128 ft | 19 kts | 349° |
| 2026-04-30 21:00 | 40.08783 | 116.59503 | 129 ft | 36 kts | 172° |
| 2026-04-30 21:01 | 40.07420 | 116.59724 | 129 ft | 153 kts | 173° |
| 2026-04-30 21:01 | 40.06238 | 116.59877 | 374 ft | 176 kts | 177° |
| 2026-04-30 21:01 | 40.03693 | 116.60237 | 1537 ft | 184 kts | 171° |
| 2026-04-30 21:02 | 40.02446 | 116.60442 | 2208 ft | 186 kts | 172° |
| 2026-04-30 21:02 | 40.01106 | 116.60663 | 2599 ft | 200 kts | 172° |
| 2026-04-30 21:02 | 39.99630 | 116.60900 | 2681 ft | 228 kts | 172° |
| 2026-04-30 21:02 | 39.97934 | 116.61169 | 2801 ft | 258 kts | 173° |
| 2026-04-30 21:03 | 39.96075 | 116.61465 | 3263 ft | 272 kts | 173° |
| 2026-04-30 21:03 | 39.94212 | 116.61759 | 4076 ft | 271 kts | 173° |
| 2026-04-30 21:03 | 39.92314 | 116.62059 | 4807 ft | 275 kts | 173° |
| 2026-04-30 21:03 | 39.90385 | 116.62365 | 5455 ft | 281 kts | 173° |
| 2026-04-30 21:04 | 39.88459 | 116.62669 | 6231 ft | 280 kts | 173° |
| 2026-04-30 21:04 | 39.86539 | 116.63264 | 6826 ft | 286 kts | 153° |
| 2026-04-30 21:04 | 39.84174 | 116.67253 | 8081 ft | 290 kts | 99° |
| 2026-04-30 21:05 | 39.84242 | 116.69872 | 8661 ft | 291 kts | 72° |
| 2026-04-30 21:05 | 39.85202 | 116.72166 | 9310 ft | 289 kts | 45° |
| 2026-04-30 21:05 | 39.86830 | 116.73655 | 9932 ft | 288 kts | 21° |
| 2026-04-30 21:05 | 39.88781 | 116.74477 | 10356 ft | 298 kts | 7° |
| 2026-04-30 21:06 | 39.90921 | 116.74444 | 10360 ft | 322 kts | 353° |
| 2026-04-30 21:06 | 39.93242 | 116.74056 | 10437 ft | 345 kts | 351° |
| 2026-04-30 21:06 | 39.95690 | 116.73577 | 10834 ft | 356 kts | 350° |
| 2026-04-30 21:06 | 39.98148 | 116.73081 | 11531 ft | 358 kts | 350° |
| 2026-04-30 21:07 | 40.00645 | 116.72575 | 12256 ft | 358 kts | 350° |
| 2026-04-30 21:07 | 40.03123 | 116.72068 | 12874 ft | 361 kts | 350° |
| 2026-04-30 21:07 | 40.05659 | 116.71551 | 13474 ft | 364 kts | 349° |
| 2026-04-30 21:07 | 40.08155 | 116.71043 | 14126 ft | 365 kts | 349° |
| 2026-04-30 21:08 | 40.10699 | 116.70522 | 14738 ft | 367 kts | 349° |
| 2026-04-30 21:08 | 40.13233 | 116.70003 | 15327 ft | 370 kts | 349° |
| 2026-04-30 21:08 | 40.15786 | 116.69481 | 15906 ft | 372 kts | 349° |
| 2026-04-30 21:08 | 40.18365 | 116.68952 | 16471 ft | 375 kts | 349° |
| 2026-04-30 21:09 | 40.20947 | 116.68424 | 17067 ft | 376 kts | 348° |
| 2026-04-30 21:09 | 40.23577 | 116.67883 | 17573 ft | 379 kts | 349° |
| 2026-04-30 21:09 | 40.26195 | 116.67346 | 18046 ft | 382 kts | 349° |
| 2026-04-30 21:09 | 40.28839 | 116.66804 | 18659 ft | 382 kts | 349° |
| 2026-04-30 21:10 | 40.31493 | 116.66259 | 19174 ft | 384 kts | 348° |
| 2026-04-30 21:10 | 40.34161 | 116.65709 | 19558 ft | 389 kts | 348° |
| 2026-04-30 21:10 | 40.36822 | 116.65159 | 20036 ft | 390 kts | 348° |
| 2026-04-30 21:10 | 40.39546 | 116.64599 | 20547 ft | 391 kts | 348° |
| 2026-04-30 21:11 | 40.42249 | 116.64040 | 20996 ft | 393 kts | 347° |
| 2026-04-30 21:11 | 40.44990 | 116.63474 | 21474 ft | 394 kts | 347° |
| 2026-04-30 21:11 | 40.47726 | 116.62910 | 21870 ft | 397 kts | 347° |
| 2026-04-30 21:11 | 40.50470 | 116.62341 | 22384 ft | 397 kts | 347° |
| 2026-04-30 21:12 | 40.53246 | 116.61767 | 22777 ft | 400 kts | 347° |
| 2026-04-30 21:12 | 40.56019 | 116.61192 | 23199 ft | 401 kts | 347° |
| 2026-04-30 21:12 | 40.58792 | 116.60617 | 23543 ft | 405 kts | 347° |
| 2026-04-30 21:12 | 40.61610 | 116.60035 | 23920 ft | 407 kts | 347° |
| 2026-04-30 21:13 | 40.64421 | 116.59451 | 24359 ft | 407 kts | 347° |
| 2026-04-30 21:13 | 40.67249 | 116.58863 | 24761 ft | 409 kts | 346° |
| 2026-04-30 21:13 | 40.70073 | 116.58275 | 25084 ft | 412 kts | 347° |
| 2026-04-30 21:13 | 40.72951 | 116.57674 | 25391 ft | 414 kts | 347° |
| 2026-04-30 21:14 | 40.75801 | 116.57085 | 25793 ft | 415 kts | 346° |
| 2026-04-30 21:14 | 40.78645 | 116.56529 | 26115 ft | 419 kts | 349° |
| 2026-04-30 21:14 | 40.81605 | 116.56290 | 26313 ft | 425 kts | 351° |
| 2026-04-30 21:14 | 40.84594 | 116.56027 | 26698 ft | 425 kts | 351° |
| 2026-04-30 21:15 | 40.87511 | 116.55764 | 27191 ft | 422 kts | 351° |
| 2026-04-30 21:15 | 40.90504 | 116.55484 | 27396 ft | 427 kts | 351° |
| 2026-04-30 21:15 | 40.93468 | 116.55211 | 27668 ft | 430 kts | 351° |
| 2026-04-30 21:15 | 40.96487 | 116.54932 | 27960 ft | 431 kts | 351° |
| 2026-04-30 21:16 | 40.99502 | 116.54647 | 28214 ft | 434 kts | 351° |
| 2026-04-30 21:16 | 41.02546 | 116.54365 | 28515 ft | 435 kts | 350° |
| 2026-04-30 21:16 | 41.05594 | 116.54081 | 28842 ft | 435 kts | 350° |
| 2026-04-30 21:16 | 41.08663 | 116.53792 | 29098 ft | 437 kts | 349° |
| 2026-04-30 21:17 | 41.11700 | 116.53508 | 29241 ft | 440 kts | 350° |
| 2026-04-30 21:17 | 41.14830 | 116.53215 | 29621 ft | 439 kts | 350° |
| 2026-04-30 21:17 | 41.17874 | 116.52934 | 29995 ft | 438 kts | 349° |
| 2026-04-30 21:17 | 41.20932 | 116.52641 | 30255 ft | 438 kts | 349° |
| 2026-04-30 21:18 | 41.23943 | 116.52079 | 30690 ft | 423 kts | 338° |
| 2026-04-30 21:18 | 41.26591 | 116.50512 | 30948 ft | 412 kts | 324° |
| 2026-04-30 21:18 | 41.29059 | 116.48535 | 31251 ft | 412 kts | 324° |
| 2026-04-30 21:18 | 41.31540 | 116.46577 | 31662 ft | 408 kts | 325° |
| 2026-04-30 21:19 | 41.33983 | 116.44649 | 32254 ft | 400 kts | 325° |
| 2026-04-30 21:19 | 41.36373 | 116.42759 | 32573 ft | 398 kts | 324° |
| 2026-04-30 21:19 | 41.38745 | 116.40883 | 32870 ft | 397 kts | 324° |
| 2026-04-30 21:19 | 41.41140 | 116.38982 | 33168 ft | 396 kts | 324° |
| 2026-04-30 21:20 | 41.43491 | 116.37121 | 33508 ft | 393 kts | 325° |
| 2026-04-30 21:20 | 41.45842 | 116.35255 | 33915 ft | 388 kts | 324° |
| 2026-04-30 21:20 | 41.48162 | 116.33416 | 34258 ft | 386 kts | 323° |
| 2026-04-30 21:20 | 41.50506 | 116.31552 | 34378 ft | 389 kts | 323° |
| 2026-04-30 21:21 | 41.52843 | 116.29691 | 34813 ft | 385 kts | 324° |
| 2026-04-30 21:21 | 41.55114 | 116.27886 | 35288 ft | 379 kts | 322° |
| 2026-04-30 21:21 | 41.59705 | 116.24226 | 35661 ft | 381 kts | 323° |
| 2026-04-30 21:22 | 41.61968 | 116.22426 | 36043 ft | 376 kts | 323° |
| 2026-04-30 21:22 | 41.68807 | 116.16955 | 36178 ft | 384 kts | 323° |
| 2026-04-30 21:23 | 41.71135 | 116.15094 | 36156 ft | 388 kts | 323° |
| 2026-04-30 21:23 | 41.78144 | 116.09473 | 36158 ft | 390 kts | 323° |
| 2026-04-30 21:24 | 41.82803 | 116.05730 | 36186 ft | 387 kts | 323° |
| 2026-04-30 21:24 | 41.87439 | 116.01995 | 35878 ft | 385 kts | 323° |
| 2026-04-30 21:25 | 41.92043 | 115.98283 | 36092 ft | 387 kts | 323° |
| 2026-04-30 21:25 | 41.94336 | 115.96391 | 36160 ft | 385 kts | 319° |
| 2026-04-30 21:25 | 41.96305 | 115.93997 | 36193 ft | 380 kts | 307° |
| 2026-04-30 21:26 | 41.98933 | 115.87788 | 36183 ft | 381 kts | 297° |
| 2026-04-30 21:27 | 42.02700 | 115.78386 | 36154 ft | 378 kts | 298° |
| 2026-04-30 21:27 | 42.03965 | 115.75253 | 36016 ft | 379 kts | 298° |
| 2026-04-30 21:27 | 42.05223 | 115.72141 | 36132 ft | 372 kts | 298° |
| 2026-04-30 21:28 | 42.07726 | 115.65938 | 35942 ft | 382 kts | 298° |
| 2026-04-30 21:28 | 42.08964 | 115.62869 | 35976 ft | 367 kts | 297° |
| 2026-04-30 21:28 | 42.11418 | 115.56779 | 36348 ft | 374 kts | 298° |
| 2026-04-30 21:29 | 42.12654 | 115.53689 | 35984 ft | 375 kts | 298° |
| 2026-04-30 21:29 | 42.16409 | 115.44334 | 35811 ft | 379 kts | 298° |
| 2026-04-30 21:30 | 42.18886 | 115.38142 | 36162 ft | 382 kts | 298° |
| 2026-04-30 21:31 | 42.22575 | 115.28889 | 35582 ft | 381 kts | 298° |
| 2026-04-30 21:31 | 42.24974 | 115.22703 | 36102 ft | 380 kts | 296° |
| 2026-04-30 21:32 | 42.27327 | 115.16425 | 36325 ft | 373 kts | 296° |
| 2026-04-30 21:32 | 42.28516 | 115.13251 | 35720 ft | 378 kts | 296° |
| 2026-04-30 21:32 | 42.29688 | 115.10123 | 36311 ft | 367 kts | 297° |
| 2026-04-30 21:32 | 42.30855 | 115.07008 | 36352 ft | 378 kts | 296° |
| 2026-04-30 21:33 | 42.32055 | 115.03792 | 35979 ft | 376 kts | 296° |
| 2026-04-30 21:33 | 42.34390 | 114.97553 | 36020 ft | 377 kts | 296° |
| 2026-04-30 21:33 | 42.35568 | 114.94382 | 36252 ft | 370 kts | 296° |
| 2026-04-30 21:34 | 42.36726 | 114.91276 | 36357 ft | 371 kts | 296° |
| 2026-04-30 21:34 | 42.39087 | 114.84930 | 36157 ft | 374 kts | 296° |
| 2026-04-30 21:34 | 42.40245 | 114.81812 | 36211 ft | 373 kts | 296° |
| 2026-04-30 21:35 | 42.42587 | 114.75498 | 36175 ft | 372 kts | 295° |
| 2026-04-30 21:35 | 42.44923 | 114.69182 | 36161 ft | 373 kts | 296° |
| 2026-04-30 21:36 | 42.47268 | 114.62821 | 36159 ft | 373 kts | 296° |
| 2026-04-30 21:37 | 42.51923 | 114.50167 | 36172 ft | 373 kts | 295° |
| 2026-04-30 21:37 | 42.54225 | 114.43869 | 36172 ft | 372 kts | 296° |
| 2026-04-30 21:38 | 42.56557 | 114.37505 | 36166 ft | 374 kts | 296° |
| 2026-04-30 21:38 | 42.58870 | 114.31165 | 36185 ft | 372 kts | 295° |
| 2026-04-30 21:39 | 42.61183 | 114.24811 | 36168 ft | 375 kts | 295° |
| 2026-04-30 21:39 | 42.63527 | 114.18459 | 36167 ft | 375 kts | 297° |
| 2026-04-30 21:40 | 42.65965 | 114.12172 | 36159 ft | 374 kts | 296° |
| 2026-04-30 21:40 | 42.68388 | 114.05865 | 36171 ft | 374 kts | 296° |
| 2026-04-30 21:41 | 42.70813 | 113.99555 | 36176 ft | 374 kts | 296° |
| 2026-04-30 21:41 | 42.73218 | 113.93272 | 36174 ft | 374 kts | 296° |
| 2026-04-30 21:42 | 42.75639 | 113.86938 | 36152 ft | 374 kts | 296° |
| 2026-04-30 21:42 | 42.78047 | 113.80634 | 36147 ft | 373 kts | 296° |
| 2026-04-30 21:43 | 42.80441 | 113.74350 | 36152 ft | 376 kts | 296° |
| 2026-04-30 21:43 | 42.82859 | 113.67972 | 36147 ft | 377 kts | 296° |
| 2026-04-30 21:44 | 42.85267 | 113.61620 | 36164 ft | 374 kts | 296° |
| 2026-04-30 21:44 | 42.87672 | 113.55252 | 36149 ft | 375 kts | 296° |
| 2026-04-30 21:45 | 42.90057 | 113.48932 | 36154 ft | 375 kts | 296° |
| 2026-04-30 21:45 | 42.92475 | 113.42509 | 36156 ft | 377 kts | 296° |
| 2026-04-30 21:46 | 42.94853 | 113.36176 | 36154 ft | 376 kts | 295° |
| 2026-04-30 21:46 | 42.97249 | 113.29787 | 36163 ft | 376 kts | 295° |
| 2026-04-30 21:47 | 42.99639 | 113.23375 | 36168 ft | 376 kts | 296° |
| 2026-04-30 21:47 | 43.02040 | 113.17001 | 36161 ft | 374 kts | 295° |
| 2026-04-30 21:48 | 43.04454 | 113.10705 | 36162 ft | 374 kts | 296° |
| 2026-04-30 21:48 | 43.06880 | 113.04362 | 36167 ft | 374 kts | 296° |
| 2026-04-30 21:49 | 43.09310 | 112.97995 | 36165 ft | 376 kts | 295° |
| 2026-04-30 21:49 | 43.11740 | 112.91613 | 36164 ft | 378 kts | 295° |
| 2026-04-30 21:50 | 43.14165 | 112.85229 | 36167 ft | 375 kts | 296° |
| 2026-04-30 21:50 | 43.16579 | 112.78865 | 36162 ft | 377 kts | 296° |
| 2026-04-30 21:51 | 43.18986 | 112.72491 | 36168 ft | 376 kts | 295° |
| 2026-04-30 21:51 | 43.21405 | 112.66071 | 36172 ft | 378 kts | 295° |
| 2026-04-30 21:52 | 43.23824 | 112.59644 | 36167 ft | 378 kts | 295° |
| 2026-04-30 21:52 | 43.26242 | 112.53210 | 36164 ft | 376 kts | 295° |
| 2026-04-30 21:53 | 43.28646 | 112.46788 | 36162 ft | 377 kts | 296° |
| 2026-04-30 21:53 | 43.31046 | 112.40374 | 36164 ft | 379 kts | 295° |
| 2026-04-30 21:54 | 43.33468 | 112.33880 | 36166 ft | 378 kts | 294° |
| 2026-04-30 21:54 | 43.35882 | 112.27387 | 36168 ft | 381 kts | 295° |
| 2026-04-30 21:55 | 43.38290 | 112.20908 | 36180 ft | 380 kts | 294° |
| 2026-04-30 21:55 | 43.40716 | 112.14480 | 36170 ft | 379 kts | 299° |
| 2026-04-30 21:56 | 43.42430 | 112.11649 | 36185 ft | 387 kts | 312° |
| 2026-04-30 21:56 | 43.44669 | 112.09486 | 36191 ft | 401 kts | 323° |
| 2026-04-30 21:56 | 43.49558 | 112.05677 | 36179 ft | 402 kts | 321° |
| 2026-04-30 21:57 | 43.54382 | 112.01646 | 36182 ft | 400 kts | 321° |
| 2026-04-30 21:57 | 43.59134 | 111.97654 | 36176 ft | 400 kts | 321° |
| 2026-04-30 21:58 | 43.63908 | 111.93632 | 36184 ft | 401 kts | 321° |
| 2026-04-30 21:58 | 43.68698 | 111.89568 | 36181 ft | 402 kts | 320° |
| 2026-04-30 21:59 | 43.73395 | 111.85338 | 36181 ft | 402 kts | 320° |
| 2026-04-30 22:00 | 43.80442 | 111.78993 | 36177 ft | 402 kts | 320° |
| 2026-04-30 22:00 | 43.87535 | 111.72593 | 36070 ft | 400 kts | 320° |
| 2026-04-30 22:01 | 43.89869 | 111.70485 | 36259 ft | 401 kts | 320° |
| 2026-04-30 22:01 | 43.92227 | 111.68343 | 36090 ft | 407 kts | 320° |
| 2026-04-30 22:01 | 43.94586 | 111.66209 | 36243 ft | 406 kts | 320° |
| 2026-04-30 22:01 | 43.97005 | 111.64014 | 36149 ft | 410 kts | 320° |
| 2026-04-30 22:02 | 44.01785 | 111.59677 | 36184 ft | 408 kts | 320° |
| 2026-04-30 22:02 | 44.06538 | 111.55353 | 36179 ft | 407 kts | 320° |
| 2026-04-30 22:03 | 44.11311 | 111.51002 | 36181 ft | 407 kts | 320° |
| 2026-04-30 22:03 | 44.16066 | 111.46658 | 36183 ft | 408 kts | 320° |
| 2026-04-30 22:04 | 44.20826 | 111.42300 | 36182 ft | 407 kts | 320° |
| 2026-04-30 22:05 | 44.27956 | 111.35760 | 36189 ft | 409 kts | 320° |
| 2026-04-30 22:05 | 44.32752 | 111.31350 | 36204 ft | 409 kts | 319° |
| 2026-04-30 22:06 | 44.37522 | 111.26951 | 36202 ft | 408 kts | 320° |
| 2026-04-30 22:06 | 44.44700 | 111.20319 | 36199 ft | 409 kts | 320° |
| 2026-04-30 22:07 | 44.49449 | 111.15923 | 36209 ft | 409 kts | 320° |
| 2026-04-30 22:07 | 44.54223 | 111.11493 | 36214 ft | 410 kts | 320° |
| 2026-04-30 22:08 | 44.59002 | 111.07048 | 36214 ft | 410 kts | 320° |
| 2026-04-30 22:08 | 44.63770 | 111.02607 | 36212 ft | 409 kts | 320° |
| 2026-04-30 22:09 | 44.68572 | 110.98121 | 36204 ft | 414 kts | 320° |
| 2026-04-30 22:09 | 44.73379 | 110.93628 | 36212 ft | 413 kts | 320° |
| 2026-04-30 22:10 | 44.78181 | 110.89127 | 36206 ft | 412 kts | 320° |
| 2026-04-30 22:10 | 44.83001 | 110.84597 | 36212 ft | 413 kts | 320° |
| 2026-04-30 22:11 | 44.90210 | 110.77809 | 36215 ft | 413 kts | 320° |
| 2026-04-30 22:12 | 44.95008 | 110.73280 | 36221 ft | 417 kts | 320° |
| 2026-04-30 22:12 | 44.99858 | 110.68692 | 36211 ft | 417 kts | 320° |
| 2026-04-30 22:13 | 45.04709 | 110.64091 | 36218 ft | 416 kts | 320° |
| 2026-04-30 22:13 | 45.09532 | 110.59512 | 36228 ft | 416 kts | 321° |
| 2026-04-30 22:14 | 45.14353 | 110.54922 | 36230 ft | 417 kts | 320° |
| 2026-04-30 22:14 | 45.19159 | 110.50337 | 36224 ft | 417 kts | 321° |
| 2026-04-30 22:15 | 45.24016 | 110.45696 | 36223 ft | 417 kts | 320° |
| 2026-04-30 22:15 | 45.28850 | 110.41062 | 36227 ft | 418 kts | 321° |
| 2026-04-30 22:16 | 45.33705 | 110.36404 | 36226 ft | 418 kts | 321° |
| 2026-04-30 22:17 | 45.43378 | 110.27089 | 36242 ft | 417 kts | 320° |
| 2026-04-30 22:17 | 45.50650 | 110.20062 | 36227 ft | 418 kts | 320° |
| 2026-04-30 22:18 | 45.57923 | 110.13010 | 36229 ft | 421 kts | 320° |
| 2026-04-30 22:19 | 45.65218 | 110.05916 | 36220 ft | 422 kts | 320° |
| 2026-04-30 22:20 | 45.72510 | 109.98800 | 36233 ft | 421 kts | 321° |
| 2026-04-30 22:20 | 45.79817 | 109.91645 | 36231 ft | 422 kts | 321° |
| 2026-04-30 22:21 | 45.84717 | 109.86837 | 36223 ft | 422 kts | 321° |
| 2026-04-30 22:21 | 45.89602 | 109.82031 | 36228 ft | 424 kts | 321° |
| 2026-04-30 22:22 | 45.94478 | 109.77222 | 36231 ft | 424 kts | 321° |
| 2026-04-30 22:22 | 45.99361 | 109.72400 | 36242 ft | 425 kts | 321° |
| 2026-04-30 22:23 | 46.04271 | 109.67538 | 36237 ft | 425 kts | 321° |
| 2026-04-30 22:23 | 46.09173 | 109.62672 | 36239 ft | 425 kts | 321° |
| 2026-04-30 22:24 | 46.14083 | 109.57790 | 36247 ft | 425 kts | 321° |
| 2026-04-30 22:24 | 46.18998 | 109.52891 | 36240 ft | 425 kts | 321° |
| 2026-04-30 22:25 | 46.23869 | 109.48025 | 36245 ft | 424 kts | 321° |
| 2026-04-30 22:25 | 46.28753 | 109.43136 | 36238 ft | 425 kts | 321° |
| 2026-04-30 22:26 | 46.36078 | 109.35781 | 36251 ft | 426 kts | 321° |
| 2026-04-30 22:27 | 46.40971 | 109.30855 | 36265 ft | 426 kts | 321° |
| 2026-04-30 22:27 | 46.48323 | 109.23434 | 36260 ft | 428 kts | 321° |
| 2026-04-30 22:28 | 46.55667 | 109.15994 | 36262 ft | 427 kts | 321° |
| 2026-04-30 22:29 | 46.65471 | 109.06026 | 36256 ft | 427 kts | 321° |
| 2026-04-30 22:31 | 46.82602 | 108.88497 | 36258 ft | 428 kts | 321° |
| 2026-04-30 22:32 | 46.94838 | 108.75890 | 36272 ft | 429 kts | 321° |
| 2026-04-30 22:33 | 47.07046 | 108.63220 | 36271 ft | 429 kts | 321° |
| 2026-04-30 22:35 | 47.19292 | 108.50410 | 36287 ft | 429 kts | 321° |
| 2026-04-30 22:36 | 47.31512 | 108.37556 | 36286 ft | 431 kts | 321° |
| 2026-04-30 22:37 | 47.41295 | 108.27211 | 36301 ft | 430 kts | 321° |
| 2026-04-30 22:38 | 47.51080 | 108.16814 | 36298 ft | 430 kts | 321° |
| 2026-04-30 22:39 | 47.58399 | 108.09006 | 36306 ft | 432 kts | 321° |
| 2026-04-30 22:40 | 47.73076 | 107.93265 | 36299 ft | 432 kts | 321° |
| 2026-04-30 22:41 | 47.85295 | 107.80031 | 36291 ft | 432 kts | 321° |
| 2026-04-30 22:43 | 47.99945 | 107.64051 | 36286 ft | 433 kts | 321° |
| 2026-04-30 22:44 | 48.09724 | 107.53320 | 36252 ft | 434 kts | 321° |
| 2026-04-30 22:45 | 48.24375 | 107.37148 | 36243 ft | 433 kts | 321° |
| 2026-04-30 22:47 | 48.38968 | 107.20919 | 36263 ft | 432 kts | 321° |
| 2026-04-30 22:48 | 48.48658 | 107.10078 | 36279 ft | 432 kts | 321° |
| 2026-04-30 22:49 | 48.63172 | 106.93741 | 36298 ft | 432 kts | 321° |
| 2026-04-30 22:51 | 48.77690 | 106.77279 | 36309 ft | 432 kts | 321° |
| 2026-04-30 22:52 | 48.84953 | 106.68996 | 36308 ft | 432 kts | 321° |
| 2026-04-30 22:53 | 48.94562 | 106.57992 | 36308 ft | 431 kts | 322° |
| 2026-04-30 22:53 | 49.01810 | 106.49654 | 36313 ft | 432 kts | 321° |
| 2026-04-30 22:55 | 49.13816 | 106.35772 | 36302 ft | 430 kts | 322° |
| 2026-04-30 22:56 | 49.23396 | 106.24633 | 36312 ft | 431 kts | 321° |
| 2026-04-30 22:57 | 49.35337 | 106.10671 | 36318 ft | 431 kts | 321° |
| 2026-04-30 22:58 | 49.44888 | 105.99440 | 36315 ft | 430 kts | 321° |
| 2026-04-30 22:59 | 49.59202 | 105.82501 | 36315 ft | 429 kts | 321° |